PAFR METAR and TAF weather

Enter ICAO airport designator
Station Type Date Time Source
PAFR METAR 2021/07/28 15:38 UTC NOAA

PAFR 281538Z AUTO 03003KT 5SM BR BKN046 BKN055 OVC100 13/11 A3011 RMK AO2 SLP202


Station Type Date Time Source
PAFR Decoded METAR 2021/07/28 15:38 UTC NOAA

Ft. Richardson / Bryant U. S. Army Heliport, Ak, AK, United States (PAFR) 61-16N 149-39W 115M
Jul 28, 2021 - 11:38 AM EDT / 2021.07.28 1538 UTC
Wind: from the NNE (030 degrees) at 3 MPH (3 KT):0
Visibility: 5 mile(s):0
Sky conditions: overcast
Weather: mist
Temperature: 55 F (13 C)
Dew Point: 51 F (11 C)
Relative Humidity: 87%
Pressure (altimeter): 30.11 in. Hg (1019 hPa)
ob: PAFR 281538Z AUTO 03003KT 5SM BR BKN046 BKN055 OVC100 13/11 A3011 RMK AO2 SLP202
cycle: 15

Station Type Date Time Source
PAFR TAF UTC NOAA

Error!

Example: see airport list